Time;durP1;ratioP1;P1;durP2;ratioP2;P2;SDS_P1;SDS_P2;PMS_P1;PMS_P2;Temp;Humidity;BMP_temperature;BMP_pressure;BME280_temperature;BME280_humidity;BME280_pressure;Samples;Min_cycle;Max_cycle;Signal;HPM_P1;HPM_P2
2022/10/01 00:01:16;;;;;;;34.03;20.47;;;11.20;99.90;;;;;;4917917;29;20199;-76
2022/10/01 00:03:43;;;;;;;37.03;21.20;;;11.20;99.90;;;;;;4917748;29;20207;-76
2022/10/01 00:06:17;;;;;;;30.93;19.27;;;11.20;99.90;;;;;;4901926;29;20215;-72
2022/10/01 00:08:47;;;;;;;31.80;20.07;;;11.20;99.90;;;;;;4914379;29;20212;-78
2022/10/01 00:11:20;;;;;;;35.60;20.53;;;11.10;99.90;;;;;;4899110;29;20229;-80
2022/10/01 00:13:49;;;;;;;31.50;19.50;;;11.10;99.90;;;;;;4902939;29;20314;-77
2022/10/01 00:16:20;;;;;;;34.30;20.70;;;11.00;99.90;;;;;;4917566;29;20219;-76
2022/10/01 00:18:47;;;;;;;33.73;20.30;;;11.10;99.90;;;;;;4918045;29;20202;-82
2022/10/01 00:21:17;;;;;;;34.20;20.80;;;11.10;99.90;;;;;;4917676;29;20199;-76
2022/10/01 00:23:45;;;;;;;32.17;19.97;;;11.10;99.90;;;;;;4917584;29;20599;-82
2022/10/01 00:26:19;;;;;;;33.43;20.10;;;11.10;99.90;;;;;;4918036;29;20219;-80
2022/10/01 00:28:51;;;;;;;34.07;21.03;;;11.10;99.90;;;;;;4917608;29;20199;-78
2022/10/01 00:31:18;;;;;;;35.60;20.93;;;11.10;99.90;;;;;;4917978;29;20203;-74
2022/10/01 00:33:45;;;;;;;38.67;22.10;;;11.10;99.90;;;;;;4917691;29;20195;-76
2022/10/01 00:36:12;;;;;;;36.63;21.37;;;11.10;99.90;;;;;;4917288;29;20272;-76
2022/10/01 00:38:40;;;;;;;33.73;21.27;;;11.00;99.90;;;;;;4901900;29;20234;-79
2022/10/01 00:41:07;;;;;;;37.03;21.63;;;11.10;99.90;;;;;;4918492;29;20198;-72
2022/10/01 00:43:40;;;;;;;33.97;20.57;;;11.10;99.90;;;;;;4933278;29;20199;-80
2022/10/01 00:46:14;;;;;;;33.97;20.40;;;11.10;99.90;;;;;;4901619;29;20218;-78
2022/10/01 00:48:56;;;;;;;35.30;21.13;;;11.10;99.90;;;;;;4918678;29;20605;-71
2022/10/01 00:51:56;;;;;;;35.03;21.30;;;11.10;99.90;;;;;;4901560;29;20211;-71
2022/10/01 00:54:49;;;;;;;35.27;20.67;;;11.00;99.90;;;;;;4900552;29;20299;-72
2022/10/01 00:57:20;;;;;;;37.40;20.80;;;11.00;99.90;;;;;;4901122;29;20275;-72
2022/10/01 00:59:49;;;;;;;34.80;20.93;;;11.00;99.90;;;;;;4901372;29;20195;-71
2022/10/01 01:02:15;;;;;;;36.50;21.70;;;11.00;99.90;;;;;;4918121;29;20194;-71
2022/10/01 01:04:43;;;;;;;37.57;21.27;;;11.00;99.90;;;;;;4901019;29;20210;-70
2022/10/01 01:07:11;;;;;;;37.50;21.70;;;11.00;99.90;;;;;;4916620;29;20206;-72
2022/10/01 01:09:45;;;;;;;33.13;20.83;;;11.00;99.90;;;;;;4917964;29;20191;-72
2022/10/01 01:12:17;;;;;;;34.10;21.10;;;11.00;99.90;;;;;;4900683;29;20207;-72
2022/10/01 01:14:58;;;;;;;33.20;20.33;;;11.00;99.90;;;;;;4899946;29;20207;-72
2022/10/01 01:17:40;;;;;;;37.30;21.93;;;11.00;99.90;;;;;;4916412;29;20572;-72
2022/10/01 01:20:27;;;;;;;35.20;20.80;;;11.00;99.90;;;;;;4917866;29;20204;-71
2022/10/01 01:23:15;;;;;;;36.90;21.70;;;11.10;99.90;;;;;;4916355;29;20199;-72
2022/10/01 01:25:46;;;;;;;34.53;20.77;;;11.10;99.90;;;;;;4884601;29;20204;-71
2022/10/01 01:28:19;;;;;;;36.80;21.57;;;11.10;99.90;;;;;;4900334;29;20203;-72
2022/10/01 01:30:50;;;;;;;36.10;21.27;;;11.10;99.90;;;;;;4917734;29;20270;-71
2022/10/01 01:33:20;;;;;;;35.03;21.87;;;11.10;99.90;;;;;;4915977;29;20302;-72
2022/10/01 01:35:55;;;;;;;38.20;22.60;;;11.00;99.90;;;;;;4916585;29;20214;-72
2022/10/01 01:38:30;;;;;;;34.40;21.60;;;11.10;99.90;;;;;;4899685;29;20816;-75
2022/10/01 01:41:00;;;;;;;37.27;22.10;;;11.00;99.90;;;;;;4900376;29;20203;-77
2022/10/01 01:43:35;;;;;;;37.73;21.97;;;11.00;99.90;;;;;;4900014;29;20649;-79
2022/10/01 01:46:06;;;;;;;37.43;22.70;;;11.00;99.90;;;;;;4900395;29;20207;-76
2022/10/01 01:48:35;;;;;;;39.90;24.37;;;11.00;99.90;;;;;;4900707;29;20207;-76
2022/10/01 01:51:17;;;;;;;38.33;23.97;;;11.00;99.90;;;;;;4900253;29;20211;-72
2022/10/01 01:53:44;;;;;;;39.53;23.93;;;11.10;99.90;;;;;;4900160;29;20200;-78
2022/10/01 01:56:11;;;;;;;43.40;26.03;;;11.10;99.90;;;;;;4900073;29;20198;-69
2022/10/01 01:58:38;;;;;;;42.20;25.93;;;11.00;99.90;;;;;;4917039;29;20228;-75
2022/10/01 02:01:05;;;;;;;41.20;26.37;;;11.00;99.90;;;;;;4900234;29;20199;-75
2022/10/01 02:03:33;;;;;;;53.83;31.13;;;11.00;99.90;;;;;;4900511;29;20203;-71
2022/10/01 02:06:24;;;;;;;58.10;34.43;;;10.90;99.90;;;;;;4899941;29;20218;-73
2022/10/01 02:09:26;;;;;;;62.93;38.70;;;10.90;99.90;;;;;;4900317;29;20841;-73
2022/10/01 02:12:36;;;;;;;66.67;38.93;;;10.90;99.90;;;;;;4899820;29;20636;-78
2022/10/01 02:15:35;;;;;;;65.00;37.20;;;10.70;99.90;;;;;;4900007;29;20206;-71
2022/10/01 02:18:22;;;;;;;61.50;35.27;;;10.70;99.90;;;;;;4899430;29;20320;-70
2022/10/01 02:21:10;;;;;;;57.10;33.83;;;10.70;99.90;;;;;;4915753;29;20222;-72
2022/10/01 02:23:49;;;;;;;54.07;31.63;;;10.80;99.90;;;;;;4915822;29;20203;-71
2022/10/01 02:26:20;;;;;;;54.07;31.93;;;10.80;99.90;;;;;;4916551;29;20549;-71
2022/10/01 02:28:51;;;;;;;51.10;31.57;;;10.80;99.90;;;;;;4916634;29;20286;-71
2022/10/01 02:31:19;;;;;;;50.77;30.20;;;10.80;99.90;;;;;;4900093;29;20207;-72
2022/10/01 02:33:49;;;;;;;55.30;32.60;;;10.80;99.90;;;;;;4916581;29;20183;-71
2022/10/01 02:36:18;;;;;;;54.43;32.47;;;10.80;99.90;;;;;;4899489;29;20255;-71
2022/10/01 02:38:49;;;;;;;55.80;32.60;;;10.70;99.90;;;;;;4899899;29;20235;-78
2022/10/01 02:41:23;;;;;;;55.40;34.53;;;10.70;99.90;;;;;;4916795;29;20529;-72
2022/10/01 02:43:59;;;;;;;59.50;35.80;;;10.70;99.90;;;;;;4899477;29;20207;-72
2022/10/01 02:46:49;;;;;;;61.27;36.43;;;10.70;99.90;;;;;;4916349;29;20270;-70
2022/10/01 02:49:16;;;;;;;65.90;38.33;;;10.70;99.90;;;;;;4877024;29;20220;-73
2022/10/01 02:51:58;;;;;;;72.00;39.90;;;10.70;99.90;;;;;;4861502;29;20272;-77
2022/10/01 02:54:33;;;;;;;76.97;42.73;;;10.70;99.90;;;;;;4861280;29;20257;-76
2022/10/01 02:59:46;;;;;;;67.57;38.63;;;10.50;99.90;;;;;;4876954;29;20266;-71
2022/10/01 03:02:13;;;;;;;68.37;39.17;;;10.40;99.90;;;;;;4876850;29;20247;-76
2022/10/01 03:04:40;;;;;;;68.73;39.30;;;10.40;99.90;;;;;;4860518;29;20227;-76
2022/10/01 03:07:07;;;;;;;65.20;38.67;;;10.40;99.90;;;;;;4861313;29;20216;-78
2022/10/01 03:09:35;;;;;;;68.73;39.27;;;10.50;99.90;;;;;;4876582;29;20775;-70
2022/10/01 03:12:03;;;;;;;65.97;38.37;;;10.50;99.90;;;;;;4861111;29;20220;-77
2022/10/01 03:14:31;;;;;;;64.33;39.47;;;10.50;99.90;;;;;;4861078;29;20224;-76
2022/10/01 03:16:58;;;;;;;66.27;39.37;;;10.50;99.90;;;;;;4861331;29;20635;-71
2022/10/01 03:19:25;;;;;;;66.73;39.73;;;10.60;99.90;;;;;;4876807;29;20205;-70
2022/10/01 03:21:52;;;;;;;66.03;39.20;;;10.60;99.90;;;;;;4876504;29;20204;-71
2022/10/01 03:24:18;;;;;;;65.17;38.03;;;10.60;99.90;;;;;;4860783;29;20212;-70
2022/10/01 03:26:45;;;;;;;63.07;37.20;;;10.60;99.90;;;;;;4901686;29;20276;-70
2022/10/01 03:29:12;;;;;;;64.23;36.33;;;10.60;99.90;;;;;;4883708;29;20262;-70
2022/10/01 03:31:39;;;;;;;63.90;37.73;;;10.60;99.90;;;;;;4899302;29;20192;-70
2022/10/01 03:34:06;;;;;;;64.20;37.57;;;10.60;99.90;;;;;;4899082;29;20259;-71
2022/10/01 03:36:33;;;;;;;65.17;38.87;;;10.60;99.90;;;;;;4899598;29;20533;-72
2022/10/01 03:39:00;;;;;;;63.37;37.47;;;10.50;99.90;;;;;;4902188;29;20688;-71
2022/10/01 03:41:26;;;;;;;59.67;35.37;;;10.60;99.90;;;;;;4902698;29;20203;-71
2022/10/01 03:43:53;;;;;;;60.97;35.93;;;10.50;99.90;;;;;;4902165;29;20546;-71
2022/10/01 03:46:26;;;;;;;59.53;34.97;;;10.50;99.90;;;;;;4919572;29;20629;-74
2022/10/01 03:48:54;;;;;;;62.23;35.97;;;10.50;99.90;;;;;;4902992;29;20255;-78
2022/10/01 03:51:21;;;;;;;58.70;35.93;;;10.50;99.90;;;;;;4902795;29;20203;-76
2022/10/01 03:53:48;;;;;;;64.67;36.73;;;10.40;99.90;;;;;;4901935;29;20356;-70
2022/10/01 03:56:15;;;;;;;63.10;35.53;;;10.40;99.90;;;;;;4902094;29;20200;-71
2022/10/01 03:58:42;;;;;;;62.73;35.77;;;10.40;99.90;;;;;;4902114;29;20681;-71
2022/10/01 04:01:09;;;;;;;65.30;35.87;;;10.40;99.90;;;;;;4919327;29;20206;-72
2022/10/01 04:03:36;;;;;;;64.23;37.27;;;10.40;99.90;;;;;;4919063;29;20211;-76
2022/10/01 04:06:03;;;;;;;63.57;36.53;;;10.40;99.90;;;;;;4902182;29;20211;-71
2022/10/01 04:08:30;;;;;;;63.97;36.27;;;10.40;99.90;;;;;;4901894;29;20196;-75
2022/10/01 04:10:57;;;;;;;59.87;34.70;;;10.30;99.90;;;;;;4901896;29;20206;-71
2022/10/01 04:13:24;;;;;;;62.57;36.37;;;10.30;99.90;;;;;;4918705;29;20196;-75
2022/10/01 04:15:51;;;;;;;59.43;35.50;;;10.20;99.90;;;;;;4901640;29;20206;-71
2022/10/01 04:18:20;;;;;;;57.70;34.60;;;10.20;99.90;;;;;;4918437;29;20229;-71
2022/10/01 04:20:48;;;;;;;61.67;34.93;;;10.20;99.90;;;;;;4902182;29;20196;-72
2022/10/01 04:23:15;;;;;;;60.67;34.37;;;10.20;99.90;;;;;;4901587;29;20208;-71
2022/10/01 04:25:42;;;;;;;59.10;33.40;;;10.10;99.90;;;;;;4901507;29;20215;-75
2022/10/01 04:28:11;;;;;;;59.73;32.80;;;10.10;99.90;;;;;;4901832;29;20208;-69
2022/10/01 04:30:41;;;;;;;58.67;34.27;;;10.00;99.90;;;;;;4901518;29;20645;-74
2022/10/01 04:33:12;;;;;;;61.00;33.43;;;9.90;99.90;;;;;;4919101;29;20645;-72
2022/10/01 04:35:39;;;;;;;60.47;34.27;;;9.90;99.90;;;;;;4903732;29;20207;-73
2022/10/01 04:38:17;;;;;;;61.00;35.73;;;9.90;99.90;;;;;;4901288;29;20226;-71
2022/10/01 04:40:44;;;;;;;62.03;34.07;;;9.90;99.90;;;;;;4901300;29;20641;-78
2022/10/01 04:43:12;;;;;;;56.07;33.40;;;9.90;99.90;;;;;;4901639;29;20239;-72
2022/10/01 04:45:39;;;;;;;61.33;34.63;;;9.90;99.90;;;;;;4912317;29;20334;-78
2022/10/01 04:48:06;;;;;;;60.60;35.27;;;10.00;99.90;;;;;;4916758;29;20207;-71
2022/10/01 04:50:32;;;;;;;58.33;33.80;;;9.90;99.90;;;;;;4916907;29;20204;-71
2022/10/01 04:52:59;;;;;;;56.10;33.13;;;9.90;99.90;;;;;;4916911;29;20200;-72
2022/10/01 04:55:26;;;;;;;59.30;33.57;;;9.90;99.90;;;;;;4916398;29;20306;-71
2022/10/01 04:57:53;;;;;;;60.23;33.63;;;9.80;99.90;;;;;;4916637;29;20322;-72
2022/10/01 05:00:25;;;;;;;60.27;34.87;;;9.80;99.90;;;;;;4914063;29;20555;-71
2022/10/01 05:02:52;;;;;;;59.07;33.63;;;9.80;99.90;;;;;;4897835;29;20212;-72
2022/10/01 05:05:21;;;;;;;56.70;33.07;;;9.80;99.90;;;;;;4899965;29;20194;-72
2022/10/01 05:07:49;;;;;;;57.47;33.03;;;9.80;99.90;;;;;;4904571;29;20204;-72
2022/10/01 05:10:19;;;;;;;59.43;32.47;;;9.80;99.90;;;;;;4915097;29;20215;-73
2022/10/01 05:12:47;;;;;;;57.87;33.57;;;9.80;99.90;;;;;;4916723;29;20547;-70
2022/10/01 05:15:15;;;;;;;61.43;34.37;;;9.90;99.90;;;;;;4916290;29;20201;-70
2022/10/01 05:17:42;;;;;;;59.30;35.37;;;10.00;99.90;;;;;;4900974;29;20231;-71
2022/10/01 05:20:24;;;;;;;55.67;33.47;;;10.00;99.90;;;;;;4917539;29;20199;-80
2022/10/01 05:22:52;;;;;;;57.20;33.73;;;10.10;99.90;;;;;;4917720;29;20227;-71
2022/10/01 05:25:19;;;;;;;60.47;34.07;;;10.10;99.90;;;;;;4915598;29;20211;-70
2022/10/01 05:27:46;;;;;;;59.67;35.03;;;10.20;99.90;;;;;;4916561;29;20604;-71
2022/10/01 05:30:22;;;;;;;63.43;36.07;;;10.20;99.90;;;;;;4915958;29;20216;-70
2022/10/01 05:32:54;;;;;;;60.80;34.07;;;10.30;99.90;;;;;;4916583;29;20188;-71
2022/10/01 05:35:21;;;;;;;60.13;33.70;;;10.30;99.90;;;;;;4917484;29;20208;-70
2022/10/01 05:37:52;;;;;;;60.87;35.10;;;10.30;99.90;;;;;;4911188;29;20611;-71
2022/10/01 05:40:19;;;;;;;61.37;35.53;;;10.40;99.90;;;;;;4902139;29;20291;-72
2022/10/01 05:42:46;;;;;;;62.67;35.10;;;10.40;99.90;;;;;;4897312;29;20623;-72
2022/10/01 05:45:13;;;;;;;58.20;34.30;;;10.50;99.90;;;;;;4896575;29;20247;-72
2022/10/01 05:47:41;;;;;;;56.07;33.60;;;10.50;99.90;;;;;;4897062;29;20228;-71
2022/10/01 05:50:08;;;;;;;59.80;33.20;;;10.60;99.90;;;;;;4897056;29;20203;-72
2022/10/01 05:52:35;;;;;;;56.10;34.00;;;10.60;99.90;;;;;;4897352;29;20231;-71
2022/10/01 05:55:02;;;;;;;59.33;34.23;;;10.70;99.90;;;;;;4907265;29;20213;-71
2022/10/01 05:57:30;;;;;;;60.33;34.70;;;10.70;99.90;;;;;;4916709;29;20206;-70
2022/10/01 05:59:57;;;;;;;59.63;34.73;;;10.70;99.90;;;;;;4915004;29;20329;-71
2022/10/01 06:02:24;;;;;;;55.53;32.73;;;10.70;99.90;;;;;;4915774;29;20231;-75
2022/10/01 06:04:51;;;;;;;56.20;33.93;;;10.70;99.90;;;;;;4915511;29;20204;-72
2022/10/01 06:07:17;;;;;;;54.23;32.17;;;10.70;99.90;;;;;;4915919;29;20678;-73
2022/10/01 06:09:44;;;;;;;55.03;32.27;;;10.70;99.90;;;;;;4915477;29;20617;-71
2022/10/01 06:12:11;;;;;;;52.23;31.70;;;10.80;99.90;;;;;;4905827;29;20196;-70
2022/10/01 06:14:44;;;;;;;55.47;33.07;;;10.80;99.90;;;;;;4910203;29;20208;-71
2022/10/01 06:17:11;;;;;;;56.40;31.63;;;10.90;99.90;;;;;;4915897;29;20204;-72
2022/10/01 06:19:38;;;;;;;56.10;31.70;;;10.90;99.90;;;;;;4915938;29;20247;-72
2022/10/01 06:22:04;;;;;;;56.13;32.73;;;11.00;99.90;;;;;;4915533;29;20191;-72
2022/10/01 06:24:32;;;;;;;56.00;31.57;;;11.00;99.90;;;;;;4915363;29;20199;-73
2022/10/01 06:26:59;;;;;;;53.77;31.60;;;11.00;99.90;;;;;;4915531;29;20195;-72
2022/10/01 06:29:25;;;;;;;52.37;30.93;;;11.00;99.90;;;;;;4916472;29;20206;-71
2022/10/01 06:31:53;;;;;;;51.77;29.93;;;11.10;99.90;;;;;;4915346;29;20216;-72
2022/10/01 06:34:20;;;;;;;51.77;29.47;;;11.10;99.90;;;;;;4915494;29;20300;-72
2022/10/01 06:36:47;;;;;;;49.40;29.87;;;11.10;99.90;;;;;;4914121;29;20270;-72
2022/10/01 06:39:13;;;;;;;48.67;29.60;;;11.20;99.90;;;;;;4915159;29;20239;-72
2022/10/01 06:41:42;;;;;;;51.87;29.37;;;11.20;99.90;;;;;;4915293;29;20200;-71
2022/10/01 06:44:09;;;;;;;47.27;28.60;;;11.30;99.90;;;;;;4914988;29;20232;-72
2022/10/01 06:46:36;;;;;;;52.13;29.13;;;11.40;99.90;;;;;;4899456;29;20199;-72
2022/10/01 06:49:03;;;;;;;49.47;29.87;;;11.40;99.90;;;;;;4899590;29;20207;-74
2022/10/01 06:54:17;;;;;;;47.77;28.40;;;11.60;99.90;;;;;;4899316;29;20219;-73
2022/10/01 06:56:44;;;;;;;44.87;27.30;;;11.70;99.90;;;;;;4899839;29;20216;-71
2022/10/01 06:59:11;;;;;;;45.27;27.77;;;11.70;99.90;;;;;;4899273;29;20358;-72
2022/10/01 07:01:37;;;;;;;44.53;26.67;;;11.70;99.90;;;;;;4899614;29;20263;-72
2022/10/01 07:04:05;;;;;;;44.40;26.37;;;11.80;99.90;;;;;;4899861;29;20210;-72
2022/10/01 07:06:32;;;;;;;46.03;26.90;;;11.90;99.90;;;;;;4899445;29;20654;-71
2022/10/01 07:08:59;;;;;;;47.17;27.30;;;12.00;99.90;;;;;;4899483;29;20207;-72
2022/10/01 07:11:26;;;;;;;44.60;26.60;;;12.00;99.90;;;;;;4907382;29;20224;-73
2022/10/01 07:13:52;;;;;;;45.53;25.83;;;12.10;99.90;;;;;;4902915;29;20203;-72
2022/10/01 07:16:20;;;;;;;42.53;24.83;;;12.10;99.90;;;;;;4902813;29;20311;-71
2022/10/01 07:18:47;;;;;;;40.43;25.27;;;12.20;99.90;;;;;;4902862;29;20223;-72
2022/10/01 07:21:14;;;;;;;38.50;24.13;;;12.30;99.90;;;;;;4902782;29;20211;-73
2022/10/01 07:23:42;;;;;;;40.70;25.00;;;12.40;99.90;;;;;;4902694;29;20196;-72
2022/10/01 07:26:09;;;;;;;42.00;24.90;;;12.40;99.90;;;;;;4902755;29;20563;-72
2022/10/01 07:28:36;;;;;;;41.70;24.97;;;12.50;99.90;;;;;;4919690;29;20204;-72
2022/10/01 07:31:11;;;;;;;39.07;24.33;;;12.60;99.90;;;;;;4919652;29;20195;-73
2022/10/01 07:33:39;;;;;;;39.03;23.87;;;12.70;99.90;;;;;;4919623;29;20199;-72
2022/10/01 07:36:09;;;;;;;36.20;22.70;;;12.70;99.90;;;;;;4919214;29;20650;-70
2022/10/01 07:38:37;;;;;;;34.83;22.57;;;12.70;99.90;;;;;;4919364;29;20215;-70
2022/10/01 07:41:04;;;;;;;33.57;21.23;;;12.70;99.90;;;;;;4902425;29;20196;-72
2022/10/01 07:43:33;;;;;;;34.27;20.93;;;12.80;99.90;;;;;;4902223;29;20585;-72
2022/10/01 07:46:00;;;;;;;33.33;20.60;;;12.90;99.90;;;;;;4916187;29;20239;-70
2022/10/01 07:48:27;;;;;;;33.97;21.23;;;12.90;99.90;;;;;;4917911;29;20248;-71
2022/10/01 07:50:56;;;;;;;35.03;21.10;;;12.90;99.90;;;;;;4918082;29;20208;-71
2022/10/01 07:53:24;;;;;;;32.80;20.63;;;13.00;99.90;;;;;;4918234;29;20192;-71
2022/10/01 07:55:52;;;;;;;29.37;18.93;;;13.10;99.90;;;;;;4918939;29;20231;-73
2022/10/01 07:58:22;;;;;;;27.67;17.50;;;13.10;99.90;;;;;;4919128;29;20238;-73
2022/10/01 08:00:54;;;;;;;27.63;17.07;;;13.10;99.90;;;;;;4918352;29;20196;-71
2022/10/01 08:03:21;;;;;;;26.97;17.70;;;13.10;99.90;;;;;;4918091;29;20207;-70
2022/10/01 08:05:48;;;;;;;26.87;16.80;;;13.00;99.90;;;;;;4917522;29;20255;-72
2022/10/01 08:08:15;;;;;;;27.17;17.40;;;13.10;99.90;;;;;;4918783;29;20668;-72
2022/10/01 08:10:43;;;;;;;30.53;18.03;;;13.30;99.90;;;;;;4917668;29;20210;-73
2022/10/01 08:13:15;;;;;;;28.93;17.83;;;13.40;99.90;;;;;;4917430;29;20207;-73
2022/10/01 08:15:44;;;;;;;30.03;19.10;;;13.60;99.90;;;;;;4917327;29;20215;-73
2022/10/01 08:18:11;;;;;;;29.33;18.37;;;14.10;99.90;;;;;;4917331;29;20260;-72
2022/10/01 08:20:38;;;;;;;29.03;18.47;;;14.50;99.90;;;;;;4917625;29;20211;-72
2022/10/01 08:23:08;;;;;;;26.53;17.70;;;14.80;99.90;;;;;;4915212;29;20194;-73
2022/10/01 08:25:35;;;;;;;29.10;18.67;;;15.00;99.90;;;;;;4917243;29;20212;-71
2022/10/01 08:28:03;;;;;;;28.87;18.57;;;15.30;99.90;;;;;;4917867;29;20222;-72
2022/10/01 08:30:31;;;;;;;28.40;17.70;;;15.40;99.90;;;;;;4917208;29;20195;-74
2022/10/01 08:32:59;;;;;;;29.40;18.27;;;15.30;99.90;;;;;;4917757;29;20260;-73
2022/10/01 08:35:28;;;;;;;27.50;17.57;;;15.10;99.90;;;;;;4917015;29;20215;-72
2022/10/01 08:38:03;;;;;;;27.80;17.10;;;15.00;99.90;;;;;;4917306;29;20215;-72
2022/10/01 08:40:35;;;;;;;26.83;16.70;;;15.10;99.90;;;;;;4917056;29;20274;-71
2022/10/01 08:43:07;;;;;;;27.83;16.43;;;15.40;99.90;;;;;;4917190;29;20199;-75
2022/10/01 08:45:50;;;;;;;27.23;16.63;;;15.50;99.90;;;;;;4901097;29;20243;-74
2022/10/01 08:48:45;;;;;;;22.67;15.17;;;15.30;99.90;;;;;;4916244;29;20214;-75
2022/10/01 08:51:26;;;;;;;25.10;16.30;;;15.30;99.90;;;;;;4898617;29;20284;-76
2022/10/01 08:54:02;;;;;;;27.20;16.57;;;15.20;99.90;;;;;;4898238;29;20196;-75
2022/10/01 08:56:36;;;;;;;29.27;17.63;;;15.00;99.90;;;;;;4899186;29;20256;-72
2022/10/01 08:59:16;;;;;;;31.17;17.93;;;14.90;99.90;;;;;;4906536;29;20211;-75
2022/10/01 09:01:42;;;;;;;30.17;18.70;;;14.90;99.90;;;;;;4908271;29;20192;-75
2022/10/01 09:04:10;;;;;;;28.03;17.70;;;14.70;99.90;;;;;;4902614;29;20598;-75
2022/10/01 09:06:39;;;;;;;28.73;18.17;;;14.70;99.90;;;;;;4916552;29;20200;-78
2022/10/01 09:09:40;;;;;;;29.20;17.10;;;14.70;99.90;;;;;;4915435;29;20562;-80
2022/10/01 09:16:08;;;;;;;26.47;17.53;;;14.40;99.90;;;;;;4909849;29;20247;-82
2022/10/01 09:19:10;;;;;;;29.67;17.40;;;14.20;99.90;;;;;;4909207;29;20221;-83
2022/10/01 09:25:33;;;;;;;28.27;17.83;;;14.10;99.90;;;;;;4910834;29;20196;-84
2022/10/01 09:28:17;;;;;;;33.60;18.77;;;13.90;99.90;;;;;;4900811;29;20204;-83
2022/10/01 09:30:54;;;;;;;28.83;18.10;;;13.70;99.90;;;;;;4898557;29;20212;-87
2022/10/01 09:33:28;;;;;;;27.43;17.50;;;13.80;99.90;;;;;;4897633;29;20215;-85
2022/10/01 09:35:55;;;;;;;26.90;17.17;;;13.80;99.90;;;;;;4902603;29;20544;-85
2022/10/01 09:38:37;;;;;;;25.83;15.67;;;13.80;99.90;;;;;;4916048;29;20207;-82
2022/10/01 09:41:10;;;;;;;24.73;15.87;;;13.60;99.90;;;;;;4917462;29;20227;-81
2022/10/01 09:43:39;;;;;;;22.53;15.07;;;13.60;99.90;;;;;;4916373;29;20200;-80
2022/10/01 09:46:14;;;;;;;24.87;15.47;;;13.60;99.90;;;;;;4917199;29;20240;-76
2022/10/01 09:51:27;;;;;;;23.17;15.30;;;13.50;99.90;;;;;;4943724;23;20234;-83
2022/10/01 09:54:41;;;;;;;25.70;15.77;;;13.60;99.90;;;;;;4908197;29;20214;-85
2022/10/01 09:58:20;;;;;;;26.27;16.50;;;13.50;99.90;;;;;;4914777;29;20295;-89
2022/10/01 10:00:50;;;;;;;25.30;16.10;;;13.60;99.90;;;;;;4899409;29;20218;-81
2022/10/01 10:03:27;;;;;;;25.40;15.63;;;13.50;99.90;;;;;;4913769;23;20241;-85
2022/10/01 10:05:58;;;;;;;30.57;17.67;;;13.20;99.90;;;;;;4919387;29;20679;-76
2022/10/01 10:08:41;;;;;;;30.87;18.30;;;13.20;99.90;;;;;;4919001;29;20181;-85
2022/10/01 10:11:10;;;;;;;26.20;17.50;;;13.20;99.90;;;;;;4919637;29;20218;-87
2022/10/01 10:13:59;;;;;;;29.47;18.77;;;13.10;99.90;;;;;;4903519;29;20202;-95
2022/10/01 10:16:45;;;;;;;30.70;18.27;;;13.20;99.90;;;;;;4936400;29;20205;-86
2022/10/01 10:19:24;;;;;;;30.23;18.43;;;13.10;99.90;;;;;;4916247;29;20219;-91
2022/10/01 10:21:59;;;;;;;28.40;18.23;;;13.10;99.90;;;;;;4918477;29;20292;-89
2022/10/01 10:24:32;;;;;;;28.50;19.03;;;13.00;99.90;;;;;;4932062;29;20202;-88
2022/10/01 10:27:01;;;;;;;31.07;19.43;;;13.00;99.90;;;;;;4917314;29;20606;-85
2022/10/01 10:29:30;;;;;;;27.93;17.67;;;13.00;99.90;;;;;;4918669;29;20199;-89
2022/10/01 10:32:01;;;;;;;28.37;17.47;;;12.90;99.90;;;;;;4917575;29;20254;-87
2022/10/01 10:34:32;;;;;;;25.03;15.90;;;13.00;99.90;;;;;;4899438;29;20207;-82
2022/10/01 10:37:04;;;;;;;25.07;15.83;;;12.90;99.90;;;;;;4918176;29;20191;-83
2022/10/01 10:39:36;;;;;;;25.47;16.17;;;12.90;99.90;;;;;;4900893;29;20222;-79
2022/10/01 10:42:05;;;;;;;29.30;17.97;;;12.90;99.90;;;;;;4924759;23;20227;-79
2022/10/01 10:44:41;;;;;;;29.53;17.90;;;12.90;99.90;;;;;;4912738;29;20206;-79
2022/10/01 10:47:16;;;;;;;29.53;18.00;;;13.00;99.90;;;;;;4923908;29;20664;-82
2022/10/01 10:49:51;;;;;;;28.97;18.43;;;13.10;99.90;;;;;;4921842;29;20243;-90
2022/10/01 10:52:23;;;;;;;29.33;18.50;;;13.20;99.90;;;;;;4950143;29;20194;-80
2022/10/01 10:57:39;;;;;;;26.93;16.80;;;13.00;99.90;;;;;;4862786;29;20217;-87
2022/10/01 11:00:25;;;;;;;26.00;17.07;;;12.90;99.90;;;;;;4861679;29;20268;-85
2022/10/01 11:03:02;;;;;;;25.57;15.27;;;12.90;99.90;;;;;;4847690;29;20212;-87
2022/10/01 11:05:32;;;;;;;27.80;16.60;;;12.90;99.90;;;;;;4846360;29;20543;-80
2022/10/01 11:08:05;;;;;;;25.43;16.10;;;13.10;99.90;;;;;;4829348;29;20566;-80
2022/10/01 11:10:51;;;;;;;27.80;16.77;;;13.40;99.90;;;;;;4836216;29;20209;-86
2022/10/01 11:13:41;;;;;;;28.03;16.40;;;13.50;99.90;;;;;;4893938;23;20239;-86
2022/10/01 11:16:37;;;;;;;22.17;15.00;;;13.80;99.90;;;;;;4927623;29;20191;-85
2022/10/01 11:19:13;;;;;;;23.93;15.43;;;14.10;99.90;;;;;;4915010;29;20219;-90
2022/10/01 11:21:58;;;;;;;22.77;14.20;;;14.50;99.90;;;;;;4916120;29;20198;-80
2022/10/01 11:24:40;;;;;;;20.87;13.50;;;14.80;99.90;;;;;;4924903;29;20561;-76
2022/10/01 11:27:44;;;;;;;19.13;12.37;;;15.00;99.90;;;;;;4929480;29;20648;-78
2022/10/01 11:30:23;;;;;;;17.17;11.50;;;15.00;99.90;;;;;;4937343;29;20674;-76
2022/10/01 11:33:11;;;;;;;17.20;11.37;;;15.10;99.90;;;;;;4919322;29;20613;-78
2022/10/01 11:35:50;;;;;;;16.13;10.53;;;15.20;99.90;;;;;;4909865;29;20191;-77
2022/10/01 11:38:23;;;;;;;14.77;9.43;;;15.50;99.90;;;;;;4928655;29;20194;-74
2022/10/01 11:43:37;;;;;;;14.27;9.60;;;15.30;99.90;;;;;;4954424;23;20247;-75
2022/10/01 11:46:14;;;;;;;14.20;9.70;;;15.40;99.90;;;;;;4897561;29;20667;-75
2022/10/01 11:48:56;;;;;;;13.10;9.57;;;15.40;99.90;;;;;;4907103;29;20217;-76
2022/10/01 11:51:41;;;;;;;14.13;9.70;;;15.60;99.90;;;;;;4918547;29;20196;-74
2022/10/01 11:54:13;;;;;;;13.17;9.20;;;16.10;99.90;;;;;;4883473;29;20212;-76
2022/10/01 11:59:52;;;;;;;12.67;9.17;;;16.50;99.90;;;;;;4899206;29;20235;-78
2022/10/01 12:02:58;;;;;;;9.33;7.20;;;16.90;99.90;;;;;;4899068;29;20196;-75
2022/10/01 12:05:30;;;;;;;13.57;7.73;;;17.00;99.90;;;;;;4859172;29;20556;-77
2022/10/01 12:08:08;;;;;;;11.73;8.47;;;16.80;99.90;;;;;;4856725;29;20216;-77
2022/10/01 12:10:46;;;;;;;13.20;8.87;;;16.80;99.90;;;;;;4843099;29;20205;-78
2022/10/01 12:13:33;;;;;;;13.70;9.30;;;16.70;99.90;;;;;;4840618;29;20208;-78
2022/10/01 12:16:38;;;;;;;14.67;9.97;;;16.60;99.90;;;;;;4842277;29;20610;-75
2022/10/01 12:19:28;;;;;;;13.37;9.20;;;16.40;99.90;;;;;;4843346;29;20213;-77
2022/10/01 12:22:16;;;;;;;9.73;7.37;;;16.40;99.90;;;;;;4860744;29;20284;-76
2022/10/01 12:24:49;;;;;;;9.60;7.03;;;16.30;99.90;;;;;;4860365;29;20189;-76
2022/10/01 12:27:28;;;;;;;12.63;7.90;;;16.00;99.90;;;;;;4860275;29;20217;-76
2022/10/01 12:30:07;;;;;;;10.60;7.97;;;15.90;99.90;;;;;;4844921;29;20745;-78
2022/10/01 12:33:04;;;;;;;11.47;8.40;;;15.80;99.90;;;;;;4840336;29;20250;-78
2022/10/01 12:35:49;;;;;;;10.47;7.00;;;16.00;99.90;;;;;;4830759;29;20787;-76
2022/10/01 12:38:36;;;;;;;8.20;5.93;;;16.60;99.90;;;;;;4864021;29;20216;-76
2022/10/01 12:41:28;;;;;;;7.37;5.40;;;16.90;99.90;;;;;;4918517;29;20230;-79
2022/10/01 12:44:03;;;;;;;7.87;5.27;;;16.70;99.90;;;;;;4918660;29;20202;-79
2022/10/01 12:46:49;;;;;;;6.73;4.90;;;16.70;99.90;;;;;;4886507;29;20241;-78
2022/10/01 12:49:30;;;;;;;7.50;5.20;;;16.50;99.90;;;;;;4919028;29;20539;-78
2022/10/01 12:52:10;;;;;;;6.87;4.97;;;16.30;99.90;;;;;;4919566;29;20199;-74
2022/10/01 12:54:46;;;;;;;6.67;4.80;;;16.40;99.90;;;;;;4907477;29;20597;-74
2022/10/01 12:57:41;;;;;;;6.30;4.87;;;16.40;99.90;;;;;;4919908;29;20206;-74
2022/10/01 13:00:21;;;;;;;6.00;4.40;;;16.50;99.90;;;;;;4903883;29;20226;-74
2022/10/01 13:03:19;;;;;;;6.13;4.73;;;16.60;99.90;;;;;;4904512;29;20202;-74
2022/10/01 13:05:55;;;;;;;6.80;4.80;;;16.60;99.90;;;;;;4923953;29;21760;-74
2022/10/01 13:08:40;;;;;;;5.77;4.30;;;16.60;99.90;;;;;;4902711;29;20206;-74
2022/10/01 13:11:10;;;;;;;6.60;4.60;;;16.50;99.90;;;;;;4920903;29;20218;-74
2022/10/01 13:13:41;;;;;;;6.07;4.53;;;16.40;99.90;;;;;;4911146;29;20548;-75
2022/10/01 13:16:27;;;;;;;6.83;4.77;;;16.30;99.90;;;;;;4906116;29;20197;-74
2022/10/01 13:18:58;;;;;;;7.37;5.00;;;16.10;99.90;;;;;;4897881;29;20196;-76
2022/10/01 13:21:31;;;;;;;6.40;4.47;;;16.10;99.90;;;;;;4909042;29;20226;-71
2022/10/01 13:24:18;;;;;;;5.87;4.63;;;16.10;99.90;;;;;;4900310;29;20195;-75
2022/10/01 13:27:10;;;;;;;6.73;4.63;;;16.20;99.90;;;;;;4917943;29;20573;-76